Latest Weather Observations for Minlaton Airport

IDS60801

Issued at 6:02 pm CST Thursday 9 April 2020 (issued every 10 minutes, with the page automatically refreshed every 10 minutes)

About weather observations | Map of weather stations | Latest weather observations for SA | Other Formats
Station Details ID: 022031 Name: MINLATON AERO Lat: -34.75 Lon: 137.53 Height: 32.0 m
Data from the previous 72 hours. | See also: Recent months at Minlaton Airport
Date/Time
CST
Temp
°C
App
Temp
°C
Dew
Point
°C
Rel
Hum
%
Delta-T
°C
Wind Press
QNH
hPa
Press
MSL
hPa
Rain since
9am
mm
Dir  Spd
km/h
Gust
km/h
Spd
kts
Gust
kts
09/06:00pm 17.3 14.1 11.3 68 3.2 WSW 19 24 10 13 1021.6 1021.6 0.0
09/05:30pm 19.6 15.7 8.6 49 5.7 SSW 19 22 10 12 1021.4 1021.4 0.0
09/05:00pm 20.4 15.9 7.1 42 6.8 SSW 20 26 11 14 1021.4 1021.4 0.0
09/04:30pm 21.4 17.0 7.6 41 7.1 SSW 20 26 11 14 1021.4 1021.4 0.0
09/04:00pm 21.9 18.5 9.1 44 6.8 SSE 17 24 9 13 1021.5 1021.5 0.0
09/03:30pm 21.5 17.8 8.1 42 7.0 S 17 24 9 13 1021.7 1021.7 0.0
09/03:00pm 22.5 20.0 9.6 44 7.0 S 13 19 7 10 1021.8 1021.8 0.0
09/02:30pm 22.4 18.8 9.9 45 6.8 SSE 19 26 10 14 1021.9 1021.9 0.0
09/02:00pm 22.4 18.7 9.6 44 6.9 SE 19 26 10 14 1022.0 1022.0 0.0
09/01:30pm 22.4 18.9 8.9 42 7.2 S 17 24 9 13 1022.4 1022.4 0.0
09/01:00pm 22.3 20.4 9.1 43 7.1 SSW 9 20 5 11 1022.8 1022.8 0.0
09/12:30pm 21.5 19.7 9.4 46 6.5 ENE 9 15 5 8 1023.2 1023.2 0.0
09/12:00pm 21.6 19.9 9.8 47 6.3 E 9 17 5 9 1023.7 1023.7 0.0
09/11:30am 21.2 19.7 10.7 51 5.7 E 9 13 5 7 1024.2 1024.2 0.0
09/11:00am 19.3 17.1 9.5 53 5.2 ESE 11 20 6 11 1024.8 1024.8 0.0
09/10:30am 19.2 16.5 10.2 56 4.8 ESE 15 20 8 11 1025.0 1025.0 0.0
09/10:00am 19.3 16.0 11.6 61 4.2 ESE 20 26 11 14 1025.2 1025.2 0.0
09/09:30am 18.1 14.4 11.4 65 3.6 ESE 22 30 12 16 1025.3 1025.3 0.0
09/09:00am 17.3 12.9 11.8 70 3.0 ESE 26 32 14 17 1025.1 1025.1 0.0
09/08:30am 16.3 12.8 12.3 77 2.2 ESE 22 30 12 16 1025.1 1025.1 0.0
09/08:00am 15.1 12.0 11.7 80 1.8 ESE 19 26 10 14 1025.1 1025.1 0.0
09/07:30am 13.5 10.0 11.0 85 1.3 ESE 20 24 11 13 1025.1 1025.1 0.0
09/07:00am 12.0 8.5 10.1 88 1.0 ESE 19 22 10 12 1024.8 1024.8 0.0
09/06:30am 11.7 8.4 9.6 87 1.1 ESE 17 24 9 13 1024.8 1024.8 0.0
09/06:00am 12.7 9.1 10.4 86 1.2 ESE 20 26 11 14 1024.8 1024.8 0.0
09/05:30am 12.3 9.2 10.2 87 1.1 ESE 17 20 9 11 1024.9 1024.9 0.0
09/05:00am 12.6 9.6 10.7 88 1.0 ESE 17 22 9 12 1024.5 1024.5 0.0
09/04:30am 13.0 9.6 11.2 89 0.9 SE 20 24 11 13 1024.3 1024.3 0.0
09/04:00am 13.1 9.3 11.2 88 1.0 ESE 22 26 12 14 1024.3 1024.3 0.0
09/03:30am 13.3 9.6 11.4 88 1.0 ESE 22 26 12 14 1024.3 1024.3 0.0
09/03:00am 13.3 9.9 11.4 88 1.0 ESE 20 24 11 13 1024.6 1024.6 0.0
09/02:30am 13.3 9.1 11.2 87 1.1 SE 24 28 13 15 1024.8 1024.8 0.0
09/02:00am 13.2 9.1 11.3 88 1.0 ESE 24 26 13 14 1024.9 1024.9 0.0
09/01:30am 13.0 9.1 10.9 87 1.1 ESE 22 24 12 13 1025.1 1025.1 0.0
09/01:00am 13.1 9.6 11.0 87 1.1 ESE 20 24 11 13 1025.1 1025.1 0.0
09/12:30am 13.0 9.6 11.1 88 1.0 ESE 20 24 11 13 1025.0 1025.0 0.0
09/12:00am 12.5 9.1 10.7 89 0.9 ESE 19 20 10 11 1025.1 1025.1 0.0
 
Date/Time
CST
Temp
°C
App
Temp
°C
Dew
Point
°C
Rel
Hum
%
Delta-T
°C
Wind Press
QNH
hPa
Press
MSL
hPa
Rain since
9am
mm
Dir  Spd
km/h
Gust
km/h
Spd
kts
Gust
kts
08/11:30pm 11.5 7.8 9.6 88 1.0 ESE 19 20 10 11 1025.2 1025.2 0.0
08/11:00pm 12.3 8.7 10.0 86 1.2 ESE 19 20 10 11 1025.4 1025.4 0.0
08/10:30pm 12.8 8.4 10.3 85 1.3 SE 24 26 13 14 1025.4 1025.4 0.0
08/10:00pm 13.7 8.3 10.9 83 1.5 SE 30 35 16 19 1025.2 1025.2 0.0
08/09:30pm 13.3 9.0 10.7 84 1.4 SE 24 28 13 15 1025.2 1025.2 0.0
08/09:00pm 13.3 9.7 10.5 83 1.5 SE 20 26 11 14 1025.1 1025.1 0.0
08/08:30pm 13.2 9.5 10.2 82 1.5 SE 20 24 11 13 1024.8 1024.8 0.0
08/08:00pm 13.4 9.7 10.0 80 1.8 SE 20 24 11 13 1024.7 1024.7 0.0
08/07:30pm 13.7 10.1 9.7 77 2.0 SE 19 24 10 13 1024.5 1024.5 0.0
08/07:00pm 13.9 10.2 9.5 75 2.3 SE 19 22 10 12 1024.2 1024.2 0.0
08/06:30pm 14.6 10.7 9.4 71 2.7 SSE 20 28 11 15 1024.0 1024.0 0.0
08/06:00pm 15.6 10.1 9.3 66 3.2 SE 28 39 15 21 1023.8 1023.8 0.0
08/05:30pm 16.6 10.7 9.1 61 3.9 SE 30 35 16 19 1023.6 1023.6 0.0
08/05:00pm 17.6 11.2 8.7 56 4.6 SE 32 37 17 20 1023.5 1023.5 0.0
08/04:30pm 18.0 12.0 8.6 54 4.8 SE 30 39 16 21 1023.3 1023.3 0.0
08/04:00pm 18.6 12.9 8.3 51 5.3 SE 28 39 15 21 1023.4 1023.4 0.0
08/03:30pm 18.7 13.0 8.4 51 5.3 SE 28 39 15 21 1023.4 1023.4 0.0
08/03:00pm 18.9 13.4 7.4 47 5.8 ESE 26 35 14 19 1023.3 1023.3 0.0
08/02:30pm 18.7 13.0 6.9 46 5.9 SE 26 35 14 19 1023.4 1023.4 0.0
08/02:00pm 19.0 14.5 7.1 46 6.0 SE 20 30 11 16 1023.7 1023.7 0.0
08/01:30pm 18.6 13.6 8.0 50 5.4 SE 24 35 13 19 1024.0 1024.0 0.0
08/01:00pm 18.8 14.2 8.2 50 5.5 ESE 22 32 12 17 1024.4 1024.4 0.0
08/12:30pm 19.0 14.5 8.4 50 5.5 ESE 22 30 12 16 1024.7 1024.7 0.0
08/12:00pm 17.9 12.2 8.2 53 4.9 SE 28 37 15 20 1024.9 1024.9 0.0
08/11:30am 19.4 13.3 8.4 49 5.7 ESE 30 37 16 20 1025.1 1025.1 0.0
08/11:00am 18.1 12.5 8.7 54 4.9 ESE 28 35 15 19 1025.3 1025.3 0.0
08/10:30am 18.4 12.1 8.9 54 4.9 SE 32 39 17 21 1025.4 1025.4 0.0
08/10:00am 17.7 11.9 9.3 58 4.4 ESE 30 39 16 21 1025.4 1025.4 0.0
08/09:30am 17.3 11.1 9.2 59 4.2 ESE 32 41 17 22 1025.3 1025.3 0.0
08/09:00am 17.0 10.8 9.2 60 4.0 ESE 32 41 17 22 1025.0 1025.0 0.0
08/08:30am 16.7 10.5 10.1 65 3.5 ESE 33 43 18 23 1024.7 1024.7 0.0
08/08:00am 15.2 10.0 10.2 72 2.6 ESE 28 33 15 18 1024.3 1024.3 0.0
08/07:30am 14.4 9.1 9.8 74 2.4 ESE 28 33 15 18 1023.9 1023.9 0.0
08/07:00am 13.7 8.7 9.6 76 2.1 ESE 26 30 14 16 1023.6 1023.6 0.0
08/06:30am 13.4 8.4 9.6 78 1.9 ESE 26 35 14 19 1023.3 1023.3 0.0
08/06:00am 13.1 8.1 9.4 78 1.9 ESE 26 33 14 18 1023.0 1023.0 0.0
08/05:30am 13.2 8.2 9.6 79 1.8 ESE 26 32 14 17 1022.9 1022.9 0.0
08/05:00am 13.5 8.9 9.7 78 2.0 ESE 24 33 13 18 1022.8 1022.8 0.0
08/04:30am 13.3 8.4 9.9 80 1.7 ESE 26 32 14 17 1022.4 1022.4 0.0
08/04:00am 12.5 7.9 9.5 82 1.5 SE 24 28 13 15 1022.3 1022.3 0.0
08/03:30am 12.0 8.1 9.4 84 1.3 SE 20 26 11 14 1022.3 1022.3 0.0
08/03:00am 11.2 8.0 10.0 92 0.6 SE 17 22 9 12 1022.5 1022.5 0.0
08/02:30am 10.2 7.1 8.8 91 0.7 SSE 15 17 8 9 1022.6 1022.6 0.0
08/02:00am 10.4 7.3 8.7 89 0.8 SSE 15 17 8 9 1023.0 1023.0 0.0
08/01:30am 11.2 8.1 8.9 86 1.1 SSE 15 17 8 9 1023.0 1023.0 0.0
08/01:00am 12.0 8.1 9.6 85 1.2 SE 20 24 11 13 1022.9 1022.9 0.0
08/12:30am 11.8 8.5 9.5 86 1.2 SE 17 20 9 11 1022.9 1022.9 0.0
08/12:00am 12.1 8.8 9.7 85 1.2 SE 17 20 9 11 1022.9 1022.9 0.0
 
Date/Time
CST
Temp
°C
App
Temp
°C
Dew
Point
°C
Rel
Hum
%
Delta-T
°C
Wind Press
QNH
hPa
Press
MSL
hPa
Rain since
9am
mm
Dir  Spd
km/h
Gust
km/h
Spd
kts
Gust
kts
07/11:30pm 12.4 8.7 10.1 86 1.2 SE 20 22 11 12 1022.9 1022.9 0.0
07/11:00pm 12.0 8.4 9.7 86 1.2 SSE 19 20 10 11 1023.3 1023.3 0.0
07/10:30pm 12.2 8.4 9.8 85 1.2 SSE 20 22 11 12 1023.4 1023.4 0.0
07/10:00pm 12.2 8.5 9.4 83 1.4 SSE 19 20 10 11 1023.6 1023.6 0.0
07/09:30pm 12.6 8.9 9.4 81 1.6 SSE 19 20 10 11 1023.4 1023.4 0.0
07/09:00pm 13.3 9.1 9.7 79 1.8 SSE 22 26 12 14 1023.3 1023.3 0.0
07/08:30pm 13.3 9.1 9.9 80 1.7 SSE 22 24 12 13 1023.0 1023.0 0.0
07/08:00pm 13.7 9.9 9.9 78 2.0 SSE 20 24 11 13 1022.9 1022.9 0.0
07/07:30pm 13.7 9.9 9.7 77 2.0 SSE 20 22 11 12 1022.7 1022.7 0.0
07/07:00pm 14.2 10.8 9.2 72 2.6 SE 17 20 9 11 1022.4 1022.4 0.0
07/06:30pm 15.0 11.2 8.9 67 3.1 SE 19 20 10 11 1022.1 1022.1 0.0
07/06:00pm 16.1 10.5 8.8 62 3.7 SSE 28 33 15 18 1021.7 1021.7 0.0
07/05:30pm 17.5 12.2 9.7 60 4.1 SSE 28 35 15 19 1021.6 1021.6 0.0
07/05:00pm 17.9 12.7 11.7 67 3.4 SE 30 37 16 20 1021.3 1021.3 0.0
07/04:30pm 18.1 13.3 11.7 66 3.5 SE 28 35 15 19 1021.2 1021.2 0.0
07/04:00pm 18.7 13.4 11.3 62 4.0 SE 30 37 16 20 1021.1 1021.1 0.0
07/03:30pm 19.3 14.3 11.1 59 4.5 SE 28 35 15 19 1021.1 1021.1 0.0
07/03:00pm 19.2 14.0 11.5 61 4.2 SE 30 35 16 19 1021.2 1021.2 0.0
07/02:30pm 19.7 15.2 12.5 63 4.0 SSE 28 41 15 22 1021.5 1021.5 0.0
07/02:00pm 19.2 13.7 12.5 65 3.8 SSE 33 43 18 23 1021.5 1021.5 0.0
07/01:30pm 20.3 17.6 11.8 58 4.7 S 17 30 9 16 1021.8 1021.8 0.0
07/01:00pm 20.4 17.1 12.9 62 4.3 SSE 22 28 12 15 1022.0 1022.0 0.0
07/12:30pm 20.1 17.9 12.1 60 4.5 S 15 20 8 11 1022.4 1022.4 0.0
07/12:00pm 19.7 18.1 12.9 65 3.8 S 13 24 7 13 1022.9 1022.9 0.0
07/11:30am 20.1 17.2 12.3 61 4.4 SSE 19 26 10 14 1023.1 1023.1 0.0
07/11:00am 19.2 16.8 12.5 65 3.8 S 17 24 9 13 1023.2 1023.2 0.0
07/10:30am 19.4 17.8 13.8 70 3.2 S 15 28 8 15 1023.2 1023.2 0.0
07/10:00am 18.6 17.0 13.9 74 2.7 SSW 15 17 8 9 1023.5 1023.5 0.0
07/09:30am 17.3 16.4 13.8 80 2.0 SSW 11 11 6 6 1023.6 1023.6 0.0
07/09:00am 17.5 17.2 14.4 82 1.8 SSE 9 13 5 7 1023.8 1023.8 1.8
07/08:30am 16.2 15.6 14.7 91 0.9 SE 11 13 6 7 1023.7 1023.7 1.8
07/08:00am 14.5 14.3 13.7 95 0.4 SE 7 11 4 6 1023.4 1023.4 1.8
07/07:30am 13.0 12.3 12.1 94 0.5 S 7 15 4 8 1023.2 1023.2 1.8
07/07:00am 12.8 12.1 11.9 94 0.5 SSE 7 9 4 5 1022.5 1022.5 1.8
07/06:30am 13.3 11.6 12.4 94 0.5 SE 13 13 7 7 1022.2 1022.2 1.8
07/06:00am 13.6 13.1 12.7 94 0.5 SSE 7 9 4 5 1022.1 1022.1 1.8
07/05:30am 14.0 12.5 13.1 94 0.5 SE 13 15 7 8 1022.1 1022.1 1.8
07/05:00am 13.8 12.6 12.9 94 0.5 SSE 11 11 6 6 1021.8 1021.8 1.8
07/04:30am 13.7 12.1 12.8 94 0.5 SSE 13 13 7 7 1021.6 1021.6 1.8
07/04:00am 13.8 12.6 12.9 94 0.5 SE 11 11 6 6 1021.6 1021.6 1.8
07/03:30am 13.3 12.0 12.4 94 0.5 SSE 11 13 6 7 1021.6 1021.6 1.8
07/03:00am 13.1 12.0 12.0 93 0.6 S 9 11 5 6 1021.9 1021.9 1.8
07/02:30am 13.3 12.7 12.2 93 0.6 S 7 9 4 5 1022.0 1022.0 1.8
07/02:00am 13.3 12.7 12.2 93 0.6 S 7 9 4 5 1022.0 1022.0 1.8
07/01:30am 13.7 13.2 12.6 93 0.6 SE 7 9 4 5 1022.2 1022.2 1.8
07/01:00am 14.2 13.1 13.1 93 0.6 ESE 11 13 6 7 1022.1 1022.1 1.8
07/12:30am 14.2 12.7 13.1 93 0.6 SE 13 15 7 8 1022.1 1022.1 1.8
07/12:00am 14.3 12.8 13.2 93 0.6 SSE 13 13 7 7 1022.4 1022.4 1.8
 
Date/Time
CST
Temp
°C
App
Temp
°C
Dew
Point
°C
Rel
Hum
%
Delta-T
°C
Wind Press
QNH
hPa
Press
MSL
hPa
Rain since
9am
mm
Dir  Spd
km/h
Gust
km/h
Spd
kts
Gust
kts
06/11:30pm 14.1 13.3 13.0 93 0.6 SSE 9 11 5 6 1022.7 1022.7 1.8
06/11:00pm 14.3 13.2 13.2 93 0.6 SSE 11 11 6 6 1022.8 1022.8 1.8
06/10:30pm 14.5 13.9 13.4 93 0.6 S 9 11 5 6 1023.1 1023.1 1.8
06/10:00pm 14.7 14.4 13.4 92 0.7 SSE 7 9 4 5 1023.2 1023.2 1.8
06/09:30pm 14.7 14.1 13.4 92 0.7 SSE 9 11 5 6 1023.1 1023.1 1.8
06/09:00pm 15.0 14.1 13.7 92 0.7 SSE 11 15 6 8 1023.0 1023.0 1.8
06/08:30pm 15.2 15.1 13.9 92 0.7 E 7 9 4 5 1023.0 1023.0 1.8
06/08:00pm 15.1 14.2 13.8 92 0.7 E 11 11 6 6 1022.7 1022.7 1.8
06/07:30pm 15.2 14.0 13.9 92 0.7 E 13 15 7 8 1022.5 1022.5 1.8
06/07:00pm 15.4 14.3 14.3 93 0.6 E 13 17 7 9 1022.2 1022.2 1.8
06/06:30pm 15.1 13.8 13.8 92 0.7 ESE 13 15 7 8 1022.2 1022.2 1.6

Other formats

Comma delimited format used in spreadsheet applications
http://www.bom.gov.au/fwo/IDS60801/IDS60801.95659.axf

JavaScript Object Notation format (JSON) in row-major order
http://www.bom.gov.au/fwo/IDS60801/IDS60801.95659.json

Data quality

Most of these data are generated automatically and are frequently updated. Quality checks on data are not normally performed. It is possible for incorrect values to appear. Refer to information at About Latest Weather Observations and please check the disclaimer before using these data.